Time;durP1;ratioP1;P1;durP2;ratioP2;P2;SDS_P1;SDS_P2;PMS_P1;PMS_P2;Temp;Humidity;BMP_temperature;BMP_pressure;BME280_temperature;BME280_humidity;BME280_pressure;Samples;Min_cycle;Max_cycle;Signal;HPM_P1;HPM_P2
2021/12/22 00:02:01;;;;;;;3.92;3.28;;;;;;;10.62;66.16;101960.38;5054890;27;102633;-49
2021/12/22 00:04:30;;;;;;;4.47;3.30;;;;;;;10.60;66.23;101955.16;5047589;27;103910;-48
2021/12/22 00:06:56;;;;;;;4.88;3.53;;;;;;;10.62;66.04;101952.19;5040997;27;102193;-49
2021/12/22 00:09:23;;;;;;;4.88;3.65;;;;;;;10.61;66.39;101945.94;5047145;27;102414;-49
2021/12/22 00:11:50;;;;;;;4.25;3.10;;;;;;;10.60;66.24;101944.25;5040297;27;102790;-48
2021/12/22 00:14:17;;;;;;;4.53;3.25;;;;;;;10.61;65.95;101945.94;5039812;27;104086;-49
2021/12/22 00:16:44;;;;;;;4.40;3.00;;;;;;;10.60;65.68;101949.69;5040733;27;102215;-49
2021/12/22 00:19:10;;;;;;;4.43;3.15;;;;;;;10.61;66.57;101947.84;5037672;27;101826;-48
2021/12/22 00:21:38;;;;;;;3.63;3.10;;;;;;;10.60;66.22;101960.59;5039664;27;102248;-49
2021/12/22 00:24:06;;;;;;;4.38;3.30;;;;;;;10.60;65.82;101949.69;5034711;27;103805;-49
2021/12/22 00:26:32;;;;;;;4.00;3.20;;;;;;;10.60;65.70;101955.16;5047309;27;103024;-49
2021/12/22 00:28:59;;;;;;;5.63;3.13;;;;;;;10.60;66.09;101952.41;5044176;27;102349;-50
2021/12/22 00:31:43;;;;;;;5.07;3.42;;;;;;;10.60;66.32;101960.59;5038470;27;102631;-48
2021/12/22 00:34:16;;;;;;;3.95;3.13;;;;;;;10.60;65.83;101960.59;5035159;27;108058;-49
2021/12/22 00:36:44;;;;;;;4.53;3.42;;;;;;;10.60;66.22;101960.59;5036972;27;103951;-49
2021/12/22 00:39:11;;;;;;;3.70;3.10;;;;;;;10.60;65.88;101960.59;5044552;27;102403;-49
2021/12/22 00:41:38;;;;;;;5.30;3.25;;;;;;;10.59;65.76;101948.88;5044015;27;102314;-49
2021/12/22 00:44:05;;;;;;;4.20;3.30;;;;;;;10.60;66.18;101949.69;5042011;27;103913;-48
2021/12/22 00:46:31;;;;;;;4.53;3.50;;;;;;;10.60;66.12;101949.69;5046974;27;102089;-49
2021/12/22 00:48:58;;;;;;;4.80;3.42;;;;;;;10.59;65.92;101953.50;5050390;27;102363;-49
2021/12/22 00:51:24;;;;;;;5.05;3.30;;;;;;;10.59;66.27;101953.50;5043423;27;102327;-50
2021/12/22 00:53:52;;;;;;;3.92;2.80;;;;;;;10.59;65.97;101950.78;5040278;27;103964;-48
2021/12/22 00:56:18;;;;;;;4.22;3.42;;;;;;;10.60;66.03;101960.59;5043176;27;102205;-49
2021/12/22 00:58:45;;;;;;;6.63;3.30;;;;;;;10.61;66.38;101953.28;5034605;27;102810;-49
2021/12/22 01:01:12;;;;;;;4.45;3.08;;;;;;;10.60;65.75;101955.16;5054630;27;102201;-49
2021/12/22 01:03:38;;;;;;;4.40;3.13;;;;;;;10.59;65.92;101959.75;5036481;27;104082;-49
2021/12/22 01:06:05;;;;;;;4.00;3.33;;;;;;;10.58;65.67;101958.13;5054045;27;102233;-50
2021/12/22 01:08:31;;;;;;;4.72;3.53;;;;;;;10.59;66.30;101964.38;5047953;27;102361;-49
2021/12/22 01:11:00;;;;;;;4.68;3.88;;;;;;;10.59;65.91;101965.22;5041051;27;102400;-49
2021/12/22 01:13:28;;;;;;;5.57;3.57;;;;;;;10.59;66.36;101964.38;5052551;27;103972;-49
2021/12/22 01:15:55;;;;;;;4.38;3.38;;;;;;;10.60;65.84;101960.59;5041665;27;102064;-49
2021/12/22 01:18:30;;;;;;;5.35;3.47;;;;;;;10.59;66.08;101953.50;5036735;27;102217;-49
2021/12/22 01:21:10;;;;;;;5.40;3.70;;;;;;;10.58;66.29;101951.84;5048611;27;102401;-49
2021/12/22 01:23:58;;;;;;;5.50;4.03;;;;;;;10.59;66.13;101948.88;5040593;27;103843;-49
2021/12/22 01:26:27;;;;;;;5.60;3.92;;;;;;;10.59;65.73;101951.59;5038835;27;102214;-50
2021/12/22 01:28:57;;;;;;;4.85;3.55;;;;;;;10.59;66.11;101948.06;5046048;27;102433;-49
2021/12/22 01:31:23;;;;;;;4.90;4.00;;;;;;;10.58;66.04;101935.53;5040937;27;102149;-49
2021/12/22 01:33:49;;;;;;;4.32;3.63;;;;;;;10.58;66.41;101936.34;5042266;27;104084;-49
2021/12/22 01:36:16;;;;;;;6.10;3.90;;;;;;;10.58;66.11;101944.50;5042737;27;102466;-49
2021/12/22 01:38:43;;;;;;;4.75;4.05;;;;;;;10.58;65.87;101936.34;5042739;27;102438;-50
2021/12/22 01:41:09;;;;;;;5.15;3.97;;;;;;;10.59;66.42;101937.16;5036355;27;102230;-49
2021/12/22 01:43:37;;;;;;;4.47;4.03;;;;;;;10.58;66.10;101928.19;5038662;27;103820;-49
2021/12/22 01:46:32;;;;;;;5.30;4.15;;;;;;;10.58;66.40;101930.06;5042763;27;102276;-49
2021/12/22 01:49:10;;;;;;;6.13;4.45;;;;;;;10.58;65.85;101930.06;5044171;27;102331;-51
2021/12/22 01:51:45;;;;;;;5.88;5.07;;;;;;;10.58;66.31;101932.81;5049358;27;102754;-49
2021/12/22 01:54:27;;;;;;;5.82;4.88;;;;;;;10.58;66.40;101930.06;5038627;27;103914;-49
2021/12/22 01:56:59;;;;;;;5.63;4.82;;;;;;;10.58;65.76;101935.53;5038750;27;102136;-49
2021/12/22 01:59:28;;;;;;;5.57;4.53;;;;;;;10.58;66.17;101938.25;5034471;27;102093;-49
2021/12/22 02:01:55;;;;;;;5.78;4.68;;;;;;;10.59;65.89;101943.44;5047269;27;102745;-49
2021/12/22 02:04:21;;;;;;;5.55;4.40;;;;;;;10.58;66.35;101946.41;5041401;27;102681;-49
2021/12/22 02:06:48;;;;;;;5.07;4.40;;;;;;;10.58;66.17;101940.97;5045494;27;102613;-51
2021/12/22 02:09:27;;;;;;;6.05;4.40;;;;;;;10.58;66.34;101940.97;5033857;27;102258;-49
2021/12/22 02:11:54;;;;;;;5.55;4.82;;;;;;;10.58;66.37;101935.53;5034624;27;102388;-49
2021/12/22 02:14:20;;;;;;;5.38;4.88;;;;;;;10.58;66.00;101938.25;5037465;27;103898;-49
2021/12/22 02:16:48;;;;;;;5.45;4.85;;;;;;;10.58;66.41;101935.53;5035158;27;102455;-50
2021/12/22 02:19:15;;;;;;;5.57;4.72;;;;;;;10.58;66.34;101935.53;5038813;27;102258;-49
2021/12/22 02:21:49;;;;;;;5.45;4.93;;;;;;;10.58;66.04;101930.06;5043887;27;102637;-51
2021/12/22 02:24:16;;;;;;;5.68;5.07;;;;;;;10.57;66.37;101933.88;5048009;27;105519;-50
2021/12/22 02:26:49;;;;;;;5.22;4.63;;;;;;;10.58;65.97;101930.06;5046530;27;102053;-49
2021/12/22 02:29:22;;;;;;;5.05;4.50;;;;;;;10.58;66.01;101921.91;5059102;27;102579;-49
2021/12/22 02:32:01;;;;;;;5.20;4.68;;;;;;;10.57;65.88;101917.53;5047560;27;102002;-49
2021/12/22 02:34:28;;;;;;;5.40;4.75;;;;;;;10.56;65.99;101922.13;5045336;27;104009;-49
2021/12/22 02:37:00;;;;;;;5.57;4.63;;;;;;;10.56;66.07;101921.31;5051589;27;102213;-48
2021/12/22 02:39:26;;;;;;;5.15;4.45;;;;;;;10.56;65.94;101916.69;5041288;27;102295;-48
2021/12/22 02:41:52;;;;;;;4.93;4.40;;;;;;;10.57;66.42;101914.81;5040803;27;102146;-49
2021/12/22 02:44:19;;;;;;;5.95;4.65;;;;;;;10.57;66.12;101917.53;5048681;27;104013;-49
2021/12/22 02:46:46;;;;;;;5.18;4.50;;;;;;;10.57;65.89;101909.38;5043209;27;102420;-49
2021/12/22 02:49:12;;;;;;;4.47;3.97;;;;;;;10.56;66.51;101907.69;5048833;27;102071;-50
2021/12/22 02:51:40;;;;;;;5.93;5.00;;;;;;;10.56;65.89;101905.81;5030331;27;102357;-49
2021/12/22 02:57:07;;;;;;;6.50;4.68;;;;;;;10.57;66.21;101909.38;5037647;27;102329;-49
2021/12/22 03:02:15;;;;;;;4.88;4.10;;;;;;;10.55;66.13;101909.59;5055759;27;102306;-49
2021/12/22 03:04:51;;;;;;;5.38;4.68;;;;;;;10.56;66.05;101913.97;5036393;27;103808;-49
2021/12/22 03:07:19;;;;;;;5.72;4.40;;;;;;;10.55;65.97;101908.78;5044457;27;102389;-49
2021/12/22 03:09:57;;;;;;;7.15;4.90;;;;;;;10.55;66.52;101909.59;5049177;27;103038;-48
2021/12/22 03:12:24;;;;;;;5.18;4.68;;;;;;;10.56;65.89;101904.97;5037305;27;102271;-49
2021/12/22 03:14:51;;;;;;;5.03;4.32;;;;;;;10.56;66.38;101910.44;5039542;27;104063;-49
2021/12/22 03:17:17;;;;;;;5.18;4.63;;;;;;;10.56;65.89;101911.25;5037855;27;102173;-49
2021/12/22 03:19:44;;;;;;;5.10;4.13;;;;;;;10.55;65.72;101919.66;5054864;27;102251;-49
2021/12/22 03:22:12;;;;;;;4.97;4.22;;;;;;;10.55;66.38;101914.22;5038811;27;102381;-49
2021/12/22 03:24:40;;;;;;;4.63;4.18;;;;;;;10.55;66.07;101915.03;5021101;28;103895;-49
2021/12/22 03:27:08;;;;;;;5.05;4.32;;;;;;;10.55;66.35;101919.66;5037192;27;102349;-49
2021/12/22 03:29:38;;;;;;;4.63;4.22;;;;;;;10.55;66.66;101925.13;5044484;27;102365;-49
2021/12/22 03:32:06;;;;;;;4.60;4.10;;;;;;;10.55;66.14;101942.25;5053110;27;102502;-50
2021/12/22 03:34:33;;;;;;;5.32;4.30;;;;;;;10.54;66.30;101935.19;5049300;27;103925;-49
2021/12/22 03:37:00;;;;;;;4.50;4.07;;;;;;;10.55;66.09;101936.00;5046185;27;101998;-48
2021/12/22 03:39:27;;;;;;;5.35;4.03;;;;;;;10.54;66.34;101929.72;5046072;27;102304;-49
2021/12/22 03:41:55;;;;;;;4.30;3.88;;;;;;;10.55;65.93;101941.44;5051958;27;102253;-49
2021/12/22 03:44:23;;;;;;;4.47;4.07;;;;;;;10.55;66.28;101938.72;5043474;27;103895;-49
2021/12/22 03:46:51;;;;;;;4.75;4.35;;;;;;;10.54;66.47;101940.63;5037085;27;102259;-49
2021/12/22 03:49:18;;;;;;;5.10;4.43;;;;;;;10.53;65.81;101944.41;5036898;27;102263;-49
2021/12/22 03:51:44;;;;;;;4.50;4.03;;;;;;;10.55;66.02;101946.88;5046136;27;102279;-49
2021/12/22 03:54:12;;;;;;;4.68;4.22;;;;;;;10.54;66.36;101945.25;5036765;27;104051;-50
2021/12/22 03:56:39;;;;;;;5.43;4.38;;;;;;;10.54;65.95;101940.63;5036310;27;102688;-49
2021/12/22 03:59:06;;;;;;;4.97;4.10;;;;;;;10.54;65.46;101934.34;5038681;27;102676;-49
2021/12/22 04:01:34;;;;;;;4.75;4.10;;;;;;;10.54;65.88;101934.34;5051532;27;102217;-50
2021/12/22 04:04:07;;;;;;;4.13;3.70;;;;;;;10.53;66.22;101928.09;5038209;27;102772;-48
2021/12/22 04:06:34;;;;;;;4.78;4.28;;;;;;;10.54;66.09;101934.34;5052334;27;102097;-49
2021/12/22 04:09:07;;;;;;;4.93;4.43;;;;;;;10.53;66.22;101932.69;5036045;27;102593;-49
2021/12/22 04:11:35;;;;;;;4.32;3.83;;;;;;;10.54;66.17;101928.91;5035517;27;102545;-49
2021/12/22 04:14:02;;;;;;;4.72;3.90;;;;;;;10.52;66.00;101939.19;5035552;27;104093;-49
2021/12/22 04:16:29;;;;;;;4.30;3.70;;;;;;;10.52;65.95;101937.31;5037990;27;102464;-49
2021/12/22 04:18:57;;;;;;;4.15;3.75;;;;;;;10.53;66.35;101938.13;5052299;27;102408;-49
2021/12/22 04:21:24;;;;;;;4.50;3.72;;;;;;;10.53;65.70;101935.41;5035220;27;102227;-50
2021/12/22 04:23:51;;;;;;;4.47;3.80;;;;;;;10.53;66.07;101938.13;5044785;27;103870;-51
2021/12/22 04:26:18;;;;;;;4.20;3.80;;;;;;;10.52;65.94;101937.31;5037209;27;102518;-49
2021/12/22 04:28:45;;;;;;;4.18;3.78;;;;;;;10.52;66.21;101940.03;5052167;27;102137;-50
2021/12/22 04:31:11;;;;;;;4.78;4.00;;;;;;;10.52;66.02;101944.66;5039238;27;102152;-49
2021/12/22 04:33:38;;;;;;;4.00;3.60;;;;;;;10.53;65.98;101949.00;5035232;27;103698;-49
2021/12/22 04:36:06;;;;;;;4.32;3.63;;;;;;;10.52;66.32;101947.38;5029143;27;102493;-49
2021/12/22 04:38:32;;;;;;;3.78;3.45;;;;;;;10.52;65.88;101950.09;5050736;27;102284;-48
2021/12/22 04:40:59;;;;;;;4.85;4.07;;;;;;;10.52;65.71;101961.78;5054262;27;102336;-49
2021/12/22 04:43:26;;;;;;;4.30;3.90;;;;;;;10.52;65.85;101969.13;5042834;27;103754;-49
2021/12/22 04:45:52;;;;;;;5.15;4.32;;;;;;;10.51;66.04;101967.50;5036918;27;102311;-49
2021/12/22 04:48:19;;;;;;;4.25;3.63;;;;;;;10.52;65.98;101969.13;5040073;27;102098;-48
2021/12/22 04:50:46;;;;;;;3.97;3.58;;;;;;;10.51;65.72;101970.22;5047852;27;102251;-49
2021/12/22 04:53:21;;;;;;;4.10;3.70;;;;;;;10.51;66.24;101981.09;5039730;27;103858;-49
2021/12/22 04:55:48;;;;;;;4.07;3.67;;;;;;;10.51;66.10;101986.53;5041938;27;101988;-49
2021/12/22 04:58:15;;;;;;;4.15;3.75;;;;;;;10.51;65.92;101989.28;5048577;27;102534;-48
2021/12/22 05:00:41;;;;;;;4.10;3.28;;;;;;;10.51;66.13;101992.81;5047219;27;102514;-49
2021/12/22 05:03:08;;;;;;;4.50;3.67;;;;;;;10.51;65.86;101992.00;5037407;27;104105;-48
2021/12/22 05:05:35;;;;;;;4.13;3.60;;;;;;;10.51;65.90;101994.72;5052173;27;102150;-49
2021/12/22 05:08:03;;;;;;;3.58;3.25;;;;;;;10.50;66.26;101993.06;5040429;27;102140;-50
2021/12/22 05:10:31;;;;;;;4.82;3.78;;;;;;;10.51;66.50;102000.16;5035947;27;102714;-49
2021/12/22 05:12:57;;;;;;;4.37;3.97;;;;;;;10.50;65.69;101998.50;5049072;27;104124;-49
2021/12/22 05:15:28;;;;;;;3.53;3.20;;;;;;;10.50;66.30;101998.50;5043705;27;102517;-48
2021/12/22 05:20:21;;;;;;;4.10;3.70;;;;;;;10.50;66.25;102017.56;5034742;27;102193;-49
2021/12/22 05:22:48;;;;;;;3.17;2.88;;;;;;;10.50;65.99;101998.50;5041167;27;104017;-50
2021/12/22 05:25:15;;;;;;;4.63;3.67;;;;;;;10.49;65.91;101997.66;5047332;27;102200;-49
2021/12/22 05:27:43;;;;;;;3.95;3.55;;;;;;;10.49;65.98;102003.09;5047336;27;102201;-49
2021/12/22 05:30:12;;;;;;;3.83;3.33;;;;;;;10.50;66.25;102003.97;5038520;27;102462;-49
2021/12/22 05:32:40;;;;;;;3.88;3.47;;;;;;;10.49;66.41;102005.81;5036555;27;103893;-48
2021/12/22 05:35:09;;;;;;;3.50;3.20;;;;;;;10.49;65.85;102003.09;5039950;27;102196;-49
2021/12/22 05:37:39;;;;;;;3.88;3.38;;;;;;;10.49;65.77;102007.72;5040599;27;102181;-49
2021/12/22 05:40:08;;;;;;;4.60;3.88;;;;;;;10.49;65.98;102013.16;5039761;27;102222;-49
2021/12/22 05:42:37;;;;;;;3.50;3.20;;;;;;;10.50;65.91;102012.94;5042357;27;103967;-48
2021/12/22 05:45:06;;;;;;;4.53;3.53;;;;;;;10.50;65.89;102021.09;5035553;27;102585;-49
2021/12/22 05:47:33;;;;;;;4.30;3.50;;;;;;;10.49;66.29;102015.88;5039317;27;102052;-50
2021/12/22 05:49:59;;;;;;;3.35;3.05;;;;;;;10.50;66.42;102031.16;5037129;27;104282;-48
2021/12/22 05:52:26;;;;;;;5.03;3.28;;;;;;;10.50;65.89;102031.16;5035734;27;104120;-49
2021/12/22 05:54:52;;;;;;;3.80;3.40;;;;;;;10.49;66.16;102032.22;5020808;28;104631;-49
2021/12/22 05:57:19;;;;;;;3.88;3.47;;;;;;;10.50;66.44;102042.06;5035035;27;102177;-49
2021/12/22 05:59:45;;;;;;;3.75;3.13;;;;;;;10.50;65.85;102042.06;5039556;27;102275;-49
2021/12/22 06:02:13;;;;;;;4.20;3.80;;;;;;;10.50;66.34;102032.00;5046621;27;103977;-49
2021/12/22 06:04:40;;;;;;;3.90;3.43;;;;;;;10.50;65.90;102032.00;5038469;27;102112;-48
2021/12/22 06:07:07;;;;;;;4.72;3.33;;;;;;;10.50;65.98;102036.63;5044533;27;102577;-49
2021/12/22 06:09:33;;;;;;;4.57;3.70;;;;;;;10.51;65.64;102038.25;5052304;27;102543;-49
2021/12/22 06:12:00;;;;;;;4.30;3.88;;;;;;;10.50;65.72;102036.63;5052848;27;103725;-49
2021/12/22 06:14:26;;;;;;;4.05;3.65;;;;;;;10.50;65.79;102039.34;5039139;27;102564;-49
2021/12/22 06:16:53;;;;;;;4.40;3.50;;;;;;;10.50;66.19;102042.06;5042405;27;102166;-48
2021/12/22 06:19:21;;;;;;;5.75;3.47;;;;;;;10.49;66.18;102040.38;5038917;27;102237;-49
2021/12/22 06:21:48;;;;;;;3.95;3.50;;;;;;;10.50;66.40;102042.06;5050586;27;103781;-49
2021/12/22 06:24:14;;;;;;;4.43;3.55;;;;;;;10.51;66.11;102035.53;5038554;27;102578;-50
2021/12/22 06:26:41;;;;;;;4.72;3.88;;;;;;;10.50;66.11;102031.16;5039568;27;102522;-49
2021/12/22 06:29:07;;;;;;;4.72;3.53;;;;;;;10.51;66.21;102043.72;5039056;27;102233;-48
2021/12/22 06:31:34;;;;;;;3.67;3.28;;;;;;;10.50;65.65;102036.63;5051675;27;103993;-49
2021/12/22 06:34:01;;;;;;;6.05;3.58;;;;;;;10.51;65.88;102043.72;5044148;27;102341;-49
2021/12/22 06:36:28;;;;;;;4.80;3.45;;;;;;;10.50;65.85;102044.78;5038960;27;102620;-49
2021/12/22 06:38:56;;;;;;;4.07;3.67;;;;;;;10.51;66.27;102052.69;5042029;27;102533;-49
2021/12/22 06:41:22;;;;;;;4.68;3.80;;;;;;;10.52;65.99;102056.25;5041071;27;104127;-49
2021/12/22 06:43:49;;;;;;;4.35;3.78;;;;;;;10.51;66.33;102052.69;5050066;27;102239;-51
2021/12/22 06:46:15;;;;;;;4.30;3.72;;;;;;;10.52;65.73;102061.69;5038319;27;102166;-50
2021/12/22 06:48:42;;;;;;;4.25;3.72;;;;;;;10.52;66.14;102059.78;5048124;27;103454;-50
2021/12/22 06:51:08;;;;;;;3.72;3.22;;;;;;;10.52;66.36;102053.53;5040157;27;103963;-50
2021/12/22 06:53:36;;;;;;;4.28;3.72;;;;;;;10.52;66.47;102051.63;5044196;27;102495;-51
2021/12/22 06:56:04;;;;;;;3.97;3.47;;;;;;;10.52;66.35;102048.91;5051181;27;102119;-49
2021/12/22 06:58:30;;;;;;;4.45;3.63;;;;;;;10.53;65.98;102057.88;5051595;27;102492;-49
2021/12/22 07:00:57;;;;;;;4.03;3.40;;;;;;;10.53;66.30;102066.91;5036035;27;103680;-48
2021/12/22 07:03:23;;;;;;;4.00;3.60;;;;;;;10.54;65.95;102062.28;5026039;27;102420;-48
2021/12/22 07:05:50;;;;;;;4.80;3.50;;;;;;;10.53;66.11;102049.72;5036134;27;102646;-49
2021/12/22 07:08:17;;;;;;;4.38;3.15;;;;;;;10.54;65.68;102062.28;5040905;27;102591;-48
2021/12/22 07:10:45;;;;;;;4.03;3.63;;;;;;;10.54;65.76;102046.78;5038905;27;103895;-51
2021/12/22 07:13:14;;;;;;;4.03;3.63;;;;;;;10.54;65.94;102065.00;5046774;27;102555;-49
2021/12/22 07:15:43;;;;;;;4.82;3.30;;;;;;;10.54;65.96;102054.94;5045871;27;102551;-50
2021/12/22 07:18:11;;;;;;;4.03;3.63;;;;;;;10.53;66.03;102049.72;5042627;27;102300;-49
2021/12/22 07:20:38;;;;;;;3.65;3.35;;;;;;;10.54;66.24;102059.56;5048856;27;103955;-49
2021/12/22 07:23:04;;;;;;;4.88;3.60;;;;;;;10.53;65.75;102064.19;5042040;27;102961;-48
2021/12/22 07:25:31;;;;;;;4.18;3.78;;;;;;;10.54;66.18;102062.28;5036601;27;102340;-49
2021/12/22 07:27:59;;;;;;;5.20;4.10;;;;;;;10.54;66.13;102063.13;5038222;27;102702;-51
2021/12/22 07:30:25;;;;;;;3.83;3.28;;;;;;;10.55;65.93;102072.09;5036243;27;104085;-48
2021/12/22 07:32:52;;;;;;;4.00;3.50;;;;;;;10.55;66.22;102080.28;5039359;27;102230;-49
2021/12/22 07:35:24;;;;;;;4.32;3.70;;;;;;;10.55;66.00;102069.38;5049244;27;102495;-52
2021/12/22 07:38:00;;;;;;;4.07;3.60;;;;;;;10.55;66.47;102072.09;5048517;27;102299;-49
2021/12/22 07:40:27;;;;;;;5.93;3.65;;;;;;;10.55;66.32;102067.47;5042920;27;103909;-49
2021/12/22 07:42:54;;;;;;;4.63;4.07;;;;;;;10.54;66.02;102054.13;5045269;27;103814;-49
2021/12/22 07:45:22;;;;;;;4.28;3.50;;;;;;;10.55;66.57;102061.22;5037658;27;102007;-49
2021/12/22 07:47:49;;;;;;;3.73;3.43;;;;;;;10.55;65.93;102072.94;5048984;27;102405;-51
2021/12/22 07:50:16;;;;;;;4.45;3.85;;;;;;;10.55;65.64;102061.22;5042489;27;105984;-49
2021/12/22 07:52:42;;;;;;;3.60;3.30;;;;;;;10.55;66.40;102072.09;5041301;27;102476;-49
2021/12/22 07:55:09;;;;;;;4.43;3.88;;;;;;;10.54;66.06;102071.28;5038313;27;102598;-49
2021/12/22 07:57:35;;;;;;;3.92;3.53;;;;;;;10.55;65.83;102083.00;5039381;27;102171;-50
2021/12/22 08:00:03;;;;;;;5.07;3.70;;;;;;;10.55;66.29;102083.81;5043454;27;103928;-48
2021/12/22 08:02:31;;;;;;;5.65;4.22;;;;;;;10.54;66.03;102076.72;5039906;27;102480;-48
2021/12/22 08:04:57;;;;;;;4.05;3.50;;;;;;;10.55;65.71;102086.53;5042077;27;102346;-48
2021/12/22 08:07:23;;;;;;;4.05;3.65;;;;;;;10.54;65.78;102086.78;5045938;27;102166;-48
2021/12/22 08:09:50;;;;;;;5.45;3.60;;;;;;;10.54;66.43;102082.16;5037903;27;104134;-48
2021/12/22 08:12:17;;;;;;;5.35;3.47;;;;;;;10.55;65.81;102083.81;5049526;27;102439;-48
2021/12/22 08:14:43;;;;;;;3.90;3.60;;;;;;;10.55;66.34;102099.31;5041204;27;102381;-48
2021/12/22 08:17:10;;;;;;;5.22;3.67;;;;;;;10.54;65.97;102097.69;5042650;27;102281;-48
2021/12/22 08:19:38;;;;;;;4.95;4.15;;;;;;;10.54;66.32;102082.16;5038045;27;103756;-48
2021/12/22 08:22:04;;;;;;;7.28;4.03;;;;;;;10.55;65.82;102100.16;5039897;27;103111;-48
2021/12/22 08:24:32;;;;;;;4.47;3.90;;;;;;;10.54;66.09;102090.34;5034227;27;103495;-48
2021/12/22 08:27:04;;;;;;;4.30;3.67;;;;;;;10.55;65.96;102093.88;5039829;27;102205;-48
2021/12/22 08:29:32;;;;;;;5.18;3.53;;;;;;;10.55;66.54;102096.59;5041516;27;104088;-49
2021/12/22 08:31:58;;;;;;;5.40;4.15;;;;;;;10.54;66.01;102095.78;5048293;27;105759;-50
2021/12/22 08:34:34;;;;;;;4.90;4.22;;;;;;;10.54;65.96;102092.22;5043255;27;103790;-48
2021/12/22 08:39:47;;;;;;;4.93;4.20;;;;;;;10.54;66.33;102092.22;5040032;27;104174;-50
2021/12/22 08:42:14;;;;;;;4.38;3.95;;;;;;;10.54;65.98;102092.22;5040678;27;102042;-49
2021/12/22 08:44:41;;;;;;;4.65;3.88;;;;;;;10.54;66.36;102086.78;5039852;27;102846;-52
2021/12/22 08:47:08;;;;;;;4.63;4.00;;;;;;;10.54;66.35;102089.50;5038142;27;102318;-48
2021/12/22 08:49:35;;;;;;;3.80;3.47;;;;;;;10.54;65.75;102084.06;5035867;27;103890;-49
2021/12/22 08:52:04;;;;;;;5.07;4.05;;;;;;;10.54;65.77;102081.34;5034401;27;102207;-48
2021/12/22 08:54:31;;;;;;;5.35;3.97;;;;;;;10.54;65.67;102081.34;5038850;27;102997;-48
2021/12/22 08:56:58;;;;;;;5.32;4.20;;;;;;;10.52;66.11;102070.69;5046228;27;102168;-48
2021/12/22 08:59:24;;;;;;;4.80;3.85;;;;;;;10.52;66.39;102076.13;5040458;27;104052;-50
2021/12/22 09:01:52;;;;;;;6.07;3.88;;;;;;;10.53;66.59;102076.94;5036819;27;102501;-50
2021/12/22 09:04:21;;;;;;;4.93;3.95;;;;;;;10.52;66.18;102067.13;5037077;27;102405;-49
2021/12/22 09:06:49;;;;;;;5.57;3.92;;;;;;;10.53;66.44;102068.78;5043944;27;102440;-48
2021/12/22 09:09:18;;;;;;;4.40;4.00;;;;;;;10.53;65.88;102068.78;5035104;27;104314;-48
2021/12/22 09:11:45;;;;;;;;;;;;;;;10.52;66.43;102065.22;5044299;27;103492;-49
2021/12/22 09:14:12;;;;;;;4.40;3.97;;;;;;;10.52;65.89;102061.69;5033472;27;102226;-49
2021/12/22 09:16:40;;;;;;;6.38;4.00;;;;;;;10.53;66.29;102063.34;5039771;27;102245;-48
2021/12/22 09:19:09;;;;;;;5.53;4.22;;;;;;;10.52;66.41;102056.25;5049171;27;103883;-48
2021/12/22 09:21:36;;;;;;;4.50;3.90;;;;;;;10.51;66.30;102060.84;5037743;27;102078;-48
2021/12/22 09:24:03;;;;;;;4.50;4.00;;;;;;;10.52;65.98;102058.97;5033672;27;102158;-48
2021/12/22 09:26:32;;;;;;;4.53;4.03;;;;;;;10.52;65.94;102056.25;5039411;27;102318;-48
2021/12/22 09:28:59;;;;;;;4.72;4.15;;;;;;;10.52;65.93;102045.34;5043020;27;104203;-49
2021/12/22 09:31:27;;;;;;;4.70;3.78;;;;;;;10.51;65.69;102049.16;5039688;27;102221;-49
2021/12/22 09:33:54;;;;;;;4.43;3.95;;;;;;;10.52;66.52;102056.25;5036020;27;102318;-49
2021/12/22 09:36:21;;;;;;;4.45;4.05;;;;;;;10.51;65.67;102046.44;5047393;27;102370;-48
2021/12/22 09:38:47;;;;;;;4.03;3.67;;;;;;;10.52;65.93;102048.06;5045320;27;104192;-48
2021/12/22 09:41:14;;;;;;;5.55;4.18;;;;;;;10.52;65.98;102039.91;5049055;27;102259;-48
2021/12/22 09:43:42;;;;;;;5.10;4.15;;;;;;;10.52;66.44;102050.78;5039544;27;102297;-48
2021/12/22 09:46:12;;;;;;;4.10;3.70;;;;;;;10.51;65.89;102054.59;5047134;27;102794;-48
2021/12/22 09:53:36;;;;;;;4.47;4.07;;;;;;;10.51;66.20;102046.44;5037933;27;102384;-48
2021/12/22 09:56:04;;;;;;;4.45;4.03;;;;;;;10.51;65.95;102044.53;5037184;27;102509;-48
2021/12/22 09:58:36;;;;;;;4.50;3.88;;;;;;;10.51;66.01;102046.44;5037088;27;103938;-48
2021/12/22 10:01:04;;;;;;;5.43;4.25;;;;;;;10.51;66.37;102035.53;5036756;27;102675;-48
2021/12/22 10:03:31;;;;;;;5.35;4.03;;;;;;;10.50;65.93;102037.44;5042853;27;102012;-48
2021/12/22 10:05:57;;;;;;;5.63;4.20;;;;;;;10.51;66.39;102032.81;5038377;27;102921;-48
2021/12/22 10:08:26;;;;;;;4.70;4.15;;;;;;;10.51;66.11;102038.25;5037932;27;104046;-50
2021/12/22 10:11:02;;;;;;;4.93;4.27;;;;;;;10.51;66.06;102032.81;5038338;27;102529;-48
2021/12/22 10:13:29;;;;;;;5.05;4.13;;;;;;;10.51;66.08;102038.25;5037529;27;102208;-48
2021/12/22 10:15:58;;;;;;;5.47;4.57;;;;;;;10.51;66.07;102043.72;5039748;27;102247;-48
2021/12/22 10:18:29;;;;;;;4.32;3.92;;;;;;;10.51;65.77;102039.09;5038578;27;103874;-48
2021/12/22 10:21:09;;;;;;;5.00;4.18;;;;;;;10.51;66.11;102051.88;5039611;27;102475;-49
2021/12/22 10:23:40;;;;;;;6.43;4.28;;;;;;;10.51;65.81;102044.53;5039069;27;104672;-48
2021/12/22 10:26:06;;;;;;;;;;;;;;;10.51;66.26;102038.25;5046417;27;102344;-48
2021/12/22 10:28:50;;;;;;;5.43;4.00;;;;;;;10.51;66.61;102044.53;5051168;27;104160;-48
2021/12/22 10:31:18;;;;;;;6.57;4.70;;;;;;;10.51;65.70;102040.97;5038327;27;102540;-49
2021/12/22 10:33:48;;;;;;;4.93;4.38;;;;;;;10.52;65.89;102045.34;5038863;27;102268;-48
2021/12/22 10:36:16;;;;;;;5.40;4.30;;;;;;;10.51;66.45;102033.66;5042306;27;102642;-48
2021/12/22 10:38:50;;;;;;;4.80;4.20;;;;;;;10.51;66.15;102030.09;5044490;27;104031;-48
2021/12/22 10:41:18;;;;;;;4.72;4.25;;;;;;;10.51;66.15;102024.66;5041346;27;102101;-48
2021/12/22 10:43:51;;;;;;;5.35;4.60;;;;;;;10.52;66.49;102023.56;5046503;27;102472;-48
2021/12/22 10:46:26;;;;;;;4.97;4.18;;;;;;;10.52;66.73;102018.97;5038432;27;102591;-49
2021/12/22 10:49:17;;;;;;;6.28;4.53;;;;;;;10.52;66.04;102012.69;5051849;27;104096;-47
2021/12/22 10:51:54;;;;;;;5.28;4.53;;;;;;;10.51;66.27;102011.88;5039990;27;102250;-48
2021/12/22 10:54:31;;;;;;;5.40;4.38;;;;;;;10.52;65.93;102012.69;5041228;27;102392;-48
2021/12/22 10:56:59;;;;;;;6.30;4.85;;;;;;;10.52;66.19;102013.50;5038987;27;103003;-48
2021/12/22 10:59:25;;;;;;;5.07;4.32;;;;;;;10.52;66.19;102007.25;5038086;27;103970;-48
2021/12/22 11:02:07;;;;;;;5.38;4.35;;;;;;;10.52;66.49;102007.25;5046221;27;102587;-48
2021/12/22 11:04:41;;;;;;;5.40;4.68;;;;;;;10.52;66.75;102007.25;5038761;27;102580;-48
2021/12/22 11:07:13;;;;;;;5.25;4.63;;;;;;;10.53;66.05;102003.44;5048071;27;102589;-48
2021/12/22 11:09:39;;;;;;;5.20;4.60;;;;;;;10.53;65.74;101998.00;5044621;27;103761;-48
2021/12/22 11:12:07;;;;;;;5.97;4.53;;;;;;;10.52;66.65;101996.34;5056306;27;102201;-47
2021/12/22 11:14:38;;;;;;;5.15;4.65;;;;;;;10.52;66.44;102002.63;5038668;27;102794;-49
2021/12/22 11:17:07;;;;;;;6.15;5.10;;;;;;;10.52;65.85;102007.25;5043657;27;102181;-48
2021/12/22 11:19:37;;;;;;;6.57;5.10;;;;;;;10.53;66.77;102000.72;5037578;27;104140;-48
2021/12/22 11:22:11;;;;;;;7.20;4.82;;;;;;;10.52;65.91;101994.47;5036308;27;104747;-48
2021/12/22 11:24:41;;;;;;;6.43;4.72;;;;;;;10.53;66.35;101998.00;5037370;27;102203;-49
2021/12/22 11:27:09;;;;;;;5.60;5.00;;;;;;;10.54;66.74;102005.13;5033830;27;102900;-47
2021/12/22 11:29:37;;;;;;;6.20;4.40;;;;;;;10.52;66.14;101986.28;5037909;27;103745;-48
2021/12/22 11:32:06;;;;;;;5.60;4.77;;;;;;;10.53;66.51;101998.00;5037467;27;102881;-48
2021/12/22 11:34:36;;;;;;;6.35;4.97;;;;;;;10.52;66.83;101989.00;5038783;27;102508;-49
2021/12/22 11:37:05;;;;;;;5.47;4.95;;;;;;;10.53;66.52;101987.13;5038266;27;102232;-49
2021/12/22 11:39:32;;;;;;;5.28;4.78;;;;;;;10.52;65.96;101989.00;5045148;27;103827;-48